21kousinmaru — JD2168 — position and weather

sailwx.info

Track history (hours):
 
Tides and Currents Weather Stations Pressure Air Temp Water Temp Dewpoint Dewpoint Depression Visibility Wind Speed Wind Dir Waves Ship Positions

21kousinmaru

Last reported at 2017-Mar-27 22:32 UTC. Time now 2017-Mar-28 08:30 UTC.
Position N 35°07' E 139°41'.

Length 68 m; draft 4.5 m.

MMSI: 431501835.

Date/timePositionNaut miles runAvg speedWind from/ knotsBaromVisibWave heightAir tempDewpointWater temp
2017-Mar-27 22:32N 35°07' E 139°41'1111.3
2017-Mar-27 21:34N 35°17' E 139°45'1010.4
2017-Mar-27 20:33N 35°27' E 139°48'6 0.3
2017-Mar-27 03:30N 35°28' E 139°55'0 0.0
2017-Mar-26 17:13N 35°28' E 139°55'0 0.0
2017-Mar-26 16:25N 35°28' E 139°55'3 0.1
2017-Mar-25 00:32N 35°28' E 139°52'1111.5
2017-Mar-24 23:34N 35°19' E 139°44'  
2017-Mar-20 13:12N 34°57' E 139°44'711.3
2017-Mar-20 12:33N 35°05' E 139°45'1212.1
2017-Mar-20 11:33N 35°17' E 139°45'10 9.9
2017-Mar-20 10:33N 35°27' E 139°47'1211.6
2017-Mar-20 09:33N 35°31' E 139°60'11 1.1
2017-Mar-19 23:33N 35°26' E 139°48'1110.3
2017-Mar-19 22:31N 35°15' E 139°47'1111.5
2017-Mar-19 21:33N 35°05' E 139°44'1211.8
2017-Mar-19 20:30N 34°57' E 139°31'8 0.2
2017-Mar-18 12:14N 35°04' E 139°36'812.1
2017-Mar-18 11:32N 35°09' E 139°44'1111.0
2017-Mar-18 10:33N 35°20' E 139°42'1110.8
2017-Mar-18 09:33N 35°29' E 139°50'  
Track history (hours):
 
Tides and Currents Weather Stations Pressure Air Temp Water Temp Dewpoint Dewpoint Depression Visibility Wind Speed Wind Dir Waves Ship Positions

21kousinmaru

Last reported at 2017-Mar-27 22:32 UTC. Time now 2017-Mar-28 08:30 UTC.
Position N 35°07' E 139°41'.

Length 68 m; draft 4.5 m.

MMSI: 431501835.

Date/timePositionNaut miles runAvg speedWind from/ knotsBaromVisibWave heightAir tempDewpointWater temp
2017-Mar-27 22:32N 35°07' E 139°41'1111.3
2017-Mar-27 21:34N 35°17' E 139°45'1010.4
2017-Mar-27 20:33N 35°27' E 139°48'6 0.3
2017-Mar-27 03:30N 35°28' E 139°55'0 0.0
2017-Mar-26 17:13N 35°28' E 139°55'0 0.0
2017-Mar-26 16:25N 35°28' E 139°55'3 0.1
2017-Mar-25 00:32N 35°28' E 139°52'1111.5
2017-Mar-24 23:34N 35°19' E 139°44'  
2017-Mar-20 13:12N 34°57' E 139°44'711.3
2017-Mar-20 12:33N 35°05' E 139°45'1212.1
2017-Mar-20 11:33N 35°17' E 139°45'10 9.9
2017-Mar-20 10:33N 35°27' E 139°47'1211.6
2017-Mar-20 09:33N 35°31' E 139°60'11 1.1
2017-Mar-19 23:33N 35°26' E 139°48'1110.3
2017-Mar-19 22:31N 35°15' E 139°47'1111.5
2017-Mar-19 21:33N 35°05' E 139°44'1211.8
2017-Mar-19 20:30N 34°57' E 139°31'8 0.2
2017-Mar-18 12:14N 35°04' E 139°36'812.1
2017-Mar-18 11:32N 35°09' E 139°44'1111.0
2017-Mar-18 10:33N 35°20' E 139°42'1110.8
2017-Mar-18 09:33N 35°29' E 139°50'  

Dump ship's entire track history